Time;durP1;ratioP1;P1;durP2;ratioP2;P2;SDS_P1;SDS_P2;PMS_P1;PMS_P2;Temp;Humidity;BMP_temperature;BMP_pressure;BME280_temperature;BME280_humidity;BME280_pressure;Samples;Min_cycle;Max_cycle;Signal;HPM_P1;HPM_P2
2021/05/14 00:01:50;;;;;;;5.33;4.83;;;11.60;86.10;;;;;;4997056;28;20215;-83
2021/05/14 00:04:20;;;;;;;6.33;4.80;;;11.50;86.30;;;;;;5003434;28;20208;-82
2021/05/14 00:06:48;;;;;;;5.17;4.67;;;11.50;86.20;;;;;;4997713;28;20211;-83
2021/05/14 00:09:17;;;;;;;7.53;4.70;;;11.40;86.70;;;;;;4992729;28;20228;-84
2021/05/14 00:11:45;;;;;;;5.83;4.37;;;11.30;87.20;;;;;;4988247;28;20390;-84
2021/05/14 00:14:14;;;;;;;7.27;4.87;;;11.10;87.90;;;;;;4988213;28;20212;-84
2021/05/14 00:16:42;;;;;;;5.17;4.63;;;11.00;88.30;;;;;;4984429;28;20214;-85
2021/05/14 00:19:11;;;;;;;5.50;4.90;;;10.90;89.00;;;;;;4979476;28;20214;-82
2021/05/14 00:21:39;;;;;;;6.10;4.77;;;10.90;88.60;;;;;;4975061;28;20691;-86
2021/05/14 00:24:08;;;;;;;5.33;4.80;;;10.90;88.40;;;;;;4968703;28;20633;-85
2021/05/14 00:26:36;;;;;;;10.07;5.00;;;11.20;88.00;;;;;;4966967;28;20207;-84
2021/05/14 00:29:04;;;;;;;4.93;4.53;;;11.30;87.70;;;;;;4964981;28;20239;-82
2021/05/14 00:31:32;;;;;;;7.93;4.90;;;11.30;87.70;;;;;;4970675;28;20204;-86
2021/05/14 00:34:01;;;;;;;5.27;4.77;;;11.20;87.30;;;;;;4955945;28;20215;-83
2021/05/14 00:36:29;;;;;;;5.50;5.00;;;11.20;87.50;;;;;;4977217;28;20206;-83
2021/05/14 00:38:58;;;;;;;6.03;5.33;;;11.10;87.70;;;;;;4979061;28;20196;-82
2021/05/14 00:41:26;;;;;;;7.60;4.83;;;11.00;88.20;;;;;;4986780;28;20274;-83
2021/05/14 00:43:54;;;;;;;7.17;5.77;;;11.20;88.10;;;;;;4971803;28;20761;-82
2021/05/14 00:46:23;;;;;;;7.73;5.20;;;11.20;87.80;;;;;;4979724;28;20200;-84
2021/05/14 00:48:51;;;;;;;6.70;4.70;;;11.30;87.40;;;;;;4974566;28;20204;-83
2021/05/14 00:51:19;;;;;;;6.13;4.80;;;11.40;87.50;;;;;;4970531;28;20238;-82
2021/05/14 00:53:47;;;;;;;5.63;5.03;;;11.30;87.30;;;;;;4983255;28;20358;-83
2021/05/14 00:56:16;;;;;;;6.37;5.33;;;11.40;87.50;;;;;;4991075;28;20208;-83
2021/05/14 00:58:45;;;;;;;7.03;4.80;;;11.20;87.80;;;;;;4970550;28;20270;-82
2021/05/14 01:01:13;;;;;;;6.33;5.10;;;11.20;88.30;;;;;;4970724;28;20208;-84
2021/05/14 01:03:41;;;;;;;7.23;5.43;;;11.00;88.60;;;;;;4966941;28;20207;-83
2021/05/14 01:06:09;;;;;;;6.30;5.20;;;11.00;88.50;;;;;;4971397;28;20263;-85
2021/05/14 01:08:37;;;;;;;8.40;5.80;;;10.90;88.80;;;;;;4970935;28;20312;-83
2021/05/14 01:11:05;;;;;;;7.70;5.30;;;10.80;89.40;;;;;;4976032;28;20308;-84
2021/05/14 01:13:34;;;;;;;7.13;5.30;;;10.70;90.00;;;;;;4985534;28;20557;-84
2021/05/14 01:16:02;;;;;;;8.03;5.43;;;10.60;90.10;;;;;;4968927;28;21011;-84
2021/05/14 01:18:30;;;;;;;6.47;4.97;;;10.80;90.60;;;;;;4973048;28;20204;-84
2021/05/14 01:20:59;;;;;;;6.63;5.83;;;10.60;90.40;;;;;;4970453;28;20194;-83
2021/05/14 01:23:27;;;;;;;8.80;5.70;;;10.50;90.50;;;;;;4970991;28;20207;-84
2021/05/14 01:25:55;;;;;;;7.50;6.20;;;10.50;90.90;;;;;;4967200;28;20204;-84
2021/05/14 01:28:23;;;;;;;9.07;5.67;;;10.40;90.90;;;;;;4972391;28;20219;-81
2021/05/14 01:30:53;;;;;;;6.03;5.40;;;10.40;91.30;;;;;;4971246;28;20719;-82
2021/05/14 01:33:21;;;;;;;7.77;5.93;;;10.30;91.40;;;;;;4967246;28;20219;-84
2021/05/14 01:35:49;;;;;;;7.67;6.33;;;10.30;91.30;;;;;;4976009;28;20216;-83
2021/05/14 01:38:18;;;;;;;7.00;6.30;;;10.40;90.80;;;;;;4973920;28;20445;-82
2021/05/14 01:40:46;;;;;;;8.33;5.57;;;10.50;90.60;;;;;;4979549;28;20607;-82
2021/05/14 01:43:14;;;;;;;6.50;5.77;;;10.60;90.20;;;;;;4979741;28;20208;-83
2021/05/14 01:45:43;;;;;;;9.10;6.57;;;10.60;90.50;;;;;;4998330;28;20242;-81
2021/05/14 01:48:11;;;;;;;6.70;6.00;;;10.60;90.30;;;;;;4999656;28;20211;-82
2021/05/14 01:50:40;;;;;;;6.60;6.00;;;10.50;90.40;;;;;;5004737;28;20273;-85
2021/05/14 01:53:08;;;;;;;7.07;6.37;;;10.50;90.70;;;;;;5004077;28;20192;-85
2021/05/14 01:55:38;;;;;;;6.47;5.80;;;10.40;90.60;;;;;;5005496;28;20218;-84
2021/05/14 01:58:08;;;;;;;9.17;6.00;;;10.40;90.70;;;;;;5002779;28;20215;-86
2021/05/14 02:00:36;;;;;;;7.57;5.83;;;10.50;90.90;;;;;;4972378;28;20493;-82
2021/05/14 02:03:04;;;;;;;7.87;6.43;;;10.40;91.20;;;;;;4992893;28;20271;-82
2021/05/14 02:05:32;;;;;;;8.93;6.23;;;10.40;91.20;;;;;;4977532;28;20216;-82
2021/05/14 02:08:00;;;;;;;6.43;5.83;;;10.50;91.10;;;;;;4984749;28;20208;-81
2021/05/14 02:10:28;;;;;;;10.10;6.60;;;10.50;91.00;;;;;;4996825;28;20238;-82
2021/05/14 02:12:57;;;;;;;7.53;6.20;;;10.50;91.00;;;;;;5008829;28;20234;-83
2021/05/14 02:15:25;;;;;;;6.77;6.03;;;10.50;91.00;;;;;;5002272;28;20306;-82
2021/05/14 02:17:53;;;;;;;7.90;6.37;;;10.50;91.20;;;;;;4988123;28;20208;-83
2021/05/14 02:20:22;;;;;;;7.37;6.33;;;10.40;91.40;;;;;;4973905;28;20211;-83
2021/05/14 02:22:50;;;;;;;9.27;6.63;;;10.40;91.80;;;;;;4970783;28;21187;-84
2021/05/14 02:25:18;;;;;;;8.17;6.20;;;10.40;92.00;;;;;;4967209;28;20205;-83
2021/05/14 02:27:46;;;;;;;7.27;5.90;;;10.40;92.00;;;;;;4971234;28;20576;-85
2021/05/14 02:30:16;;;;;;;7.03;6.20;;;10.40;91.60;;;;;;4975037;28;20627;-84
2021/05/14 02:32:44;;;;;;;8.77;7.17;;;10.30;91.90;;;;;;4963560;28;20268;-83
2021/05/14 02:35:13;;;;;;;10.93;7.27;;;10.20;92.40;;;;;;4969929;28;20207;-86
2021/05/14 02:37:42;;;;;;;8.50;6.87;;;10.20;93.10;;;;;;4970778;28;20240;-83
2021/05/14 02:40:11;;;;;;;8.57;7.77;;;10.20;93.30;;;;;;4975729;28;20716;-81
2021/05/14 02:42:39;;;;;;;7.77;6.93;;;10.30;93.40;;;;;;4977356;28;20251;-83
2021/05/14 02:45:08;;;;;;;8.50;6.90;;;10.20;93.30;;;;;;4983196;28;20204;-84
2021/05/14 02:47:37;;;;;;;8.33;7.43;;;10.20;93.30;;;;;;4969188;28;20799;-84
2021/05/14 02:50:06;;;;;;;8.77;7.87;;;10.20;93.80;;;;;;4971341;28;20382;-83
2021/05/14 02:52:34;;;;;;;10.00;7.83;;;10.30;93.90;;;;;;4968826;28;20235;-81
2021/05/14 02:55:03;;;;;;;11.30;8.23;;;10.30;93.70;;;;;;4975289;28;20243;-84
2021/05/14 02:57:31;;;;;;;9.63;7.70;;;10.30;93.60;;;;;;4971366;28;20207;-82
2021/05/14 02:59:59;;;;;;;10.83;7.47;;;10.30;93.40;;;;;;4970852;28;20239;-83
2021/05/14 03:02:27;;;;;;;8.77;7.87;;;10.30;93.10;;;;;;4968406;28;20246;-83
2021/05/14 03:04:56;;;;;;;7.83;7.03;;;10.40;93.20;;;;;;4975584;28;20870;-84
2021/05/14 03:07:24;;;;;;;15.10;7.40;;;10.50;92.60;;;;;;4975887;28;20246;-83
2021/05/14 03:09:52;;;;;;;9.23;7.40;;;10.50;92.40;;;;;;4992407;28;20226;-83
2021/05/14 03:12:21;;;;;;;9.23;7.23;;;10.50;92.10;;;;;;4976946;28;20413;-82
2021/05/14 03:14:49;;;;;;;7.53;6.73;;;10.40;92.20;;;;;;4975816;28;20680;-82
2021/05/14 03:17:17;;;;;;;11.50;7.23;;;10.40;92.30;;;;;;4973635;28;20655;-83
2021/05/14 03:19:45;;;;;;;9.60;7.93;;;10.40;92.90;;;;;;4975492;28;20197;-82
2021/05/14 03:22:14;;;;;;;9.00;7.97;;;10.40;93.10;;;;;;4981993;28;20215;-84
2021/05/14 03:24:42;;;;;;;8.70;7.80;;;10.40;93.30;;;;;;4978839;28;20717;-83
2021/05/14 03:27:10;;;;;;;9.93;6.97;;;10.50;93.10;;;;;;4976633;28;20204;-83
2021/05/14 03:29:41;;;;;;;10.47;7.80;;;10.50;92.60;;;;;;4971704;28;20215;-84
2021/05/14 03:32:09;;;;;;;8.27;7.20;;;10.60;92.30;;;;;;4987745;28;20531;-83
2021/05/14 03:34:38;;;;;;;9.53;7.90;;;10.70;92.20;;;;;;4980825;28;20749;-84
2021/05/14 03:37:07;;;;;;;8.23;7.23;;;10.70;92.30;;;;;;4975565;28;20621;-82
2021/05/14 03:39:40;;;;;;;8.20;7.33;;;10.80;92.10;;;;;;4973527;28;20206;-83
2021/05/14 03:42:14;;;;;;;9.07;7.57;;;10.90;91.90;;;;;;4969318;28;20208;-82
2021/05/14 03:44:43;;;;;;;9.80;7.47;;;11.00;91.30;;;;;;4973124;28;20203;-83
2021/05/14 03:47:11;;;;;;;8.83;6.93;;;11.00;91.20;;;;;;4976323;28;20430;-83
2021/05/14 03:49:40;;;;;;;10.87;7.20;;;11.10;91.10;;;;;;4976061;28;20283;-84
2021/05/14 03:52:11;;;;;;;8.60;7.07;;;11.10;90.70;;;;;;4973788;28;20302;-84
2021/05/14 03:54:41;;;;;;;8.10;7.00;;;11.20;90.70;;;;;;4971520;28;20238;-83
2021/05/14 03:57:09;;;;;;;9.03;7.67;;;11.30;90.50;;;;;;4973030;28;20478;-85
2021/05/14 03:59:38;;;;;;;14.03;8.60;;;11.40;90.50;;;;;;4968874;28;20207;-84
2021/05/14 04:02:07;;;;;;;11.70;9.13;;;11.50;90.70;;;;;;4970473;28;20275;-83
2021/05/14 04:04:35;;;;;;;12.70;7.83;;;11.50;90.40;;;;;;4969805;28;20228;-82
2021/05/14 04:07:05;;;;;;;12.03;8.37;;;11.60;90.40;;;;;;4981084;28;20204;-84
2021/05/14 04:09:35;;;;;;;13.17;8.00;;;11.60;90.50;;;;;;4975384;28;20204;-84
2021/05/14 04:12:13;;;;;;;14.03;7.93;;;11.60;90.90;;;;;;4975996;28;20268;-85
2021/05/14 04:14:41;;;;;;;12.40;8.13;;;11.60;91.00;;;;;;4976095;28;20207;-84
2021/05/14 04:17:13;;;;;;;15.63;8.47;;;11.70;90.80;;;;;;4993622;28;20204;-82
2021/05/14 04:19:41;;;;;;;9.87;8.30;;;11.80;90.50;;;;;;4985419;28;20374;-82
2021/05/14 04:22:09;;;;;;;17.50;8.77;;;11.90;90.20;;;;;;4973901;28;20204;-83
2021/05/14 04:24:37;;;;;;;12.83;8.60;;;12.00;90.20;;;;;;4993371;28;20196;-84
2021/05/14 04:27:06;;;;;;;12.40;8.07;;;12.00;90.00;;;;;;4977126;28;20196;-85
2021/05/14 04:29:34;;;;;;;9.63;8.60;;;12.10;90.10;;;;;;4981045;28;20733;-85
2021/05/14 04:32:02;;;;;;;12.80;7.90;;;12.20;90.10;;;;;;4979476;28;20224;-85
2021/05/14 04:34:30;;;;;;;10.63;8.20;;;12.30;90.00;;;;;;4989952;28;20203;-85
2021/05/14 04:37:05;;;;;;;12.13;7.87;;;12.40;89.90;;;;;;4990491;28;20204;-82
2021/05/14 04:39:33;;;;;;;11.90;7.93;;;12.60;89.80;;;;;;4973864;28;20195;-84
2021/05/14 04:42:01;;;;;;;10.63;8.00;;;12.80;89.10;;;;;;4976571;28;20211;-83
2021/05/14 04:44:31;;;;;;;11.13;8.60;;;12.90;89.00;;;;;;4977791;28;20211;-84
2021/05/14 04:46:59;;;;;;;11.53;7.63;;;13.00;88.80;;;;;;4981015;28;20238;-84
2021/05/14 04:49:27;;;;;;;10.53;8.53;;;13.20;88.80;;;;;;5002490;28;20231;-85
2021/05/14 04:51:56;;;;;;;10.50;8.80;;;13.40;87.60;;;;;;4992158;28;20619;-82
2021/05/14 04:54:25;;;;;;;9.50;8.13;;;13.50;87.60;;;;;;5000566;28;20219;-82
2021/05/14 04:56:53;;;;;;;12.13;8.23;;;13.70;87.80;;;;;;4996119;28;20215;-85
2021/05/14 04:59:22;;;;;;;10.20;7.90;;;14.00;87.00;;;;;;4975098;28;20208;-83
2021/05/14 05:01:50;;;;;;;10.47;8.03;;;14.40;87.00;;;;;;4974457;28;20576;-83
2021/05/14 05:04:19;;;;;;;9.33;8.23;;;14.50;86.30;;;;;;5002610;28;20259;-83
2021/05/14 05:06:47;;;;;;;10.33;8.40;;;14.60;86.30;;;;;;5002995;28;20192;-85
2021/05/14 05:09:15;;;;;;;12.73;8.27;;;14.70;86.40;;;;;;5001016;28;20272;-83
2021/05/14 05:11:43;;;;;;;10.80;8.27;;;15.10;86.20;;;;;;4973593;28;20321;-81
2021/05/14 05:14:11;;;;;;;11.63;8.60;;;15.30;85.80;;;;;;4983238;28;20203;-82
2021/05/14 05:16:39;;;;;;;14.97;8.47;;;15.70;85.10;;;;;;4986615;28;20200;-82
2021/05/14 05:19:07;;;;;;;10.90;8.80;;;16.00;85.10;;;;;;4990804;28;20204;-82
2021/05/14 05:21:36;;;;;;;13.00;9.00;;;16.20;84.70;;;;;;4992483;28;20207;-82
2021/05/14 05:24:05;;;;;;;9.57;8.30;;;16.40;84.60;;;;;;4976601;28;21222;-82
2021/05/14 05:26:33;;;;;;;11.33;9.40;;;16.50;83.70;;;;;;4977482;28;20648;-81
2021/05/14 05:29:01;;;;;;;10.83;9.77;;;16.50;83.60;;;;;;4982573;28;20522;-81
2021/05/14 05:31:29;;;;;;;10.43;9.33;;;16.50;83.70;;;;;;4971245;28;20282;-81
2021/05/14 05:33:58;;;;;;;13.30;9.53;;;16.40;83.80;;;;;;4969404;28;20287;-81
2021/05/14 05:36:29;;;;;;;12.63;9.43;;;16.40;84.20;;;;;;4968231;28;20589;-82
2021/05/14 05:39:00;;;;;;;10.77;9.53;;;16.50;84.20;;;;;;4969740;28;20203;-82
2021/05/14 05:41:29;;;;;;;14.57;10.83;;;16.60;84.00;;;;;;4970983;28;20251;-81
2021/05/14 05:43:57;;;;;;;11.80;9.87;;;16.60;83.90;;;;;;4968634;28;20470;-85
2021/05/14 05:46:25;;;;;;;13.80;10.17;;;16.60;84.10;;;;;;4980798;28;20875;-85
2021/05/14 05:48:53;;;;;;;11.80;10.57;;;16.70;84.30;;;;;;4965701;28;20223;-84
2021/05/14 05:51:21;;;;;;;13.43;10.07;;;16.70;84.30;;;;;;4964493;28;20439;-86
2021/05/14 05:53:51;;;;;;;12.97;10.60;;;16.50;84.40;;;;;;4966861;28;20339;-85
2021/05/14 05:56:19;;;;;;;11.90;10.33;;;16.30;84.60;;;;;;4945052;28;20890;-86
2021/05/14 05:58:47;;;;;;;13.67;11.10;;;16.30;84.90;;;;;;4969962;28;20712;-86
2021/05/14 06:01:15;;;;;;;14.20;11.63;;;16.30;84.80;;;;;;4971847;28;20203;-84
2021/05/14 06:03:44;;;;;;;19.77;12.50;;;16.30;85.00;;;;;;4966426;28;20215;-85
2021/05/14 06:06:11;;;;;;;13.37;11.83;;;16.40;85.00;;;;;;4968192;28;20463;-85
2021/05/14 06:08:39;;;;;;;14.97;11.97;;;16.50;85.00;;;;;;4947122;28;20223;-84
2021/05/14 06:11:08;;;;;;;15.33;11.73;;;16.70;84.80;;;;;;4967521;28;20548;-85
2021/05/14 06:13:36;;;;;;;13.73;11.00;;;17.00;84.50;;;;;;4960107;28;20219;-82
2021/05/14 06:16:05;;;;;;;15.50;11.37;;;17.20;83.90;;;;;;4956826;28;20279;-85
2021/05/14 06:18:36;;;;;;;14.00;10.73;;;17.40;83.60;;;;;;4960500;28;20203;-82
2021/05/14 06:21:06;;;;;;;14.90;11.37;;;17.70;83.80;;;;;;4958064;28;20307;-83
2021/05/14 06:23:35;;;;;;;14.60;11.13;;;18.00;83.60;;;;;;4946044;28;20324;-83
2021/05/14 06:26:04;;;;;;;15.63;11.47;;;18.10;83.20;;;;;;4963787;28;20469;-84
2021/05/14 06:28:33;;;;;;;13.33;11.30;;;18.20;83.10;;;;;;4964375;28;20208;-83
2021/05/14 06:31:04;;;;;;;12.83;10.93;;;18.20;82.80;;;;;;4971357;28;20232;-81
2021/05/14 06:33:32;;;;;;;15.93;10.90;;;18.40;82.80;;;;;;4970006;28;20332;-82
2021/05/14 06:36:01;;;;;;;14.50;12.90;;;18.70;82.80;;;;;;4965653;28;20220;-85
2021/05/14 06:38:31;;;;;;;18.33;11.93;;;19.00;82.50;;;;;;4965272;28;20212;-84
2021/05/14 06:41:08;;;;;;;15.00;12.77;;;19.10;82.10;;;;;;4978914;28;20232;-83
2021/05/14 06:43:39;;;;;;;16.83;12.73;;;19.10;81.70;;;;;;4946913;28;20259;-83
2021/05/14 06:46:06;;;;;;;16.47;11.63;;;19.20;81.80;;;;;;4967011;28;20667;-82
2021/05/14 06:48:35;;;;;;;17.17;11.43;;;19.20;81.90;;;;;;4962048;28;20257;-83
2021/05/14 06:51:04;;;;;;;17.27;11.73;;;19.20;81.80;;;;;;4973488;28;20698;-82
2021/05/14 06:53:32;;;;;;;15.07;10.77;;;19.20;82.00;;;;;;4961576;28;20383;-82
2021/05/14 06:56:01;;;;;;;14.00;11.57;;;19.10;81.90;;;;;;4965441;28;20229;-81
2021/05/14 06:58:29;;;;;;;16.90;10.97;;;19.20;82.30;;;;;;4978423;28;20200;-82
2021/05/14 07:00:58;;;;;;;13.73;11.57;;;19.30;82.30;;;;;;4982202;28;20219;-82
2021/05/14 07:03:26;;;;;;;14.63;11.27;;;19.50;81.70;;;;;;4950895;28;20214;-82
2021/05/14 07:05:54;;;;;;;14.30;11.97;;;19.40;82.00;;;;;;4965107;28;20212;-82
2021/05/14 07:08:25;;;;;;;13.60;10.80;;;19.50;82.00;;;;;;4951914;28;20223;-85
2021/05/14 07:10:53;;;;;;;13.77;12.37;;;19.30;81.50;;;;;;4966694;28;20552;-82
2021/05/14 07:13:21;;;;;;;14.33;10.20;;;19.20;81.70;;;;;;4973861;28;20196;-84
2021/05/14 07:15:49;;;;;;;11.90;10.17;;;19.40;81.60;;;;;;4982250;28;20214;-83
2021/05/14 07:18:18;;;;;;;15.40;10.73;;;19.50;81.10;;;;;;4975428;28;20203;-83
2021/05/14 07:20:47;;;;;;;11.63;9.57;;;19.50;80.90;;;;;;4978351;28;20210;-82
2021/05/14 07:23:15;;;;;;;13.67;9.63;;;19.40;80.60;;;;;;4962996;28;20258;-84
2021/05/14 07:25:43;;;;;;;14.60;10.33;;;19.50;80.70;;;;;;4988397;28;20191;-83
2021/05/14 07:28:11;;;;;;;10.17;8.40;;;19.50;80.80;;;;;;4983951;28;20214;-83
2021/05/14 07:30:39;;;;;;;14.50;8.87;;;19.50;80.10;;;;;;4994413;28;20179;-82
2021/05/14 07:33:08;;;;;;;10.57;8.93;;;19.50;79.60;;;;;;4975614;28;20242;-80
2021/05/14 07:35:38;;;;;;;12.90;9.27;;;19.60;79.10;;;;;;4993645;28;20192;-82
2021/05/14 07:38:11;;;;;;;13.77;10.07;;;19.80;79.00;;;;;;4983806;28;20214;-83
2021/05/14 07:40:39;;;;;;;16.20;9.77;;;19.70;79.30;;;;;;4990796;28;20192;-84
2021/05/14 07:43:08;;;;;;;14.77;9.50;;;19.70;80.60;;;;;;4980845;28;20210;-82
2021/05/14 07:45:36;;;;;;;19.60;11.07;;;19.80;79.80;;;;;;4981507;28;20933;-83
2021/05/14 07:48:19;;;;;;;15.80;10.30;;;20.00;79.50;;;;;;4972812;28;20203;-84
2021/05/14 07:50:50;;;;;;;14.00;10.23;;;20.10;79.50;;;;;;4980318;28;20749;-84
2021/05/14 07:53:18;;;;;;;16.43;9.63;;;20.20;79.60;;;;;;4981973;28;20238;-85
2021/05/14 07:55:47;;;;;;;18.93;9.33;;;20.30;79.20;;;;;;4993420;28;20202;-84
2021/05/14 07:58:15;;;;;;;16.70;8.67;;;20.60;79.20;;;;;;4969196;28;20220;-83
2021/05/14 08:00:45;;;;;;;15.13;9.07;;;20.70;78.70;;;;;;4995000;28;20261;-84
2021/05/14 08:03:13;;;;;;;15.00;9.83;;;20.80;78.20;;;;;;4982697;28;20679;-83
2021/05/14 08:05:41;;;;;;;14.57;9.20;;;20.60;77.80;;;;;;4985469;28;20208;-83
2021/05/14 08:08:12;;;;;;;17.20;10.03;;;20.50;77.30;;;;;;4980387;28;20207;-86
2021/05/14 08:10:42;;;;;;;13.53;7.80;;;20.50;78.20;;;;;;4988229;28;20447;-83
2021/05/14 08:13:26;;;;;;;12.93;6.97;;;20.40;77.30;;;;;;4980996;28;20891;-84
2021/05/14 08:15:55;;;;;;;12.70;6.70;;;20.40;77.30;;;;;;4982485;28;20528;-86
2021/05/14 08:18:23;;;;;;;10.53;6.93;;;20.40;76.90;;;;;;4978720;28;20208;-87
2021/05/14 08:20:52;;;;;;;9.60;7.23;;;20.50;76.70;;;;;;4987890;28;20204;-86
2021/05/14 08:23:23;;;;;;;10.53;6.93;;;20.60;77.20;;;;;;4973828;28;20208;-86
2021/05/14 08:25:54;;;;;;;11.98;7.10;;;20.80;76.60;;;;;;4976922;28;20301;-84
2021/05/14 08:28:23;;;;;;;8.50;5.97;;;20.80;76.20;;;;;;4969711;28;20212;-85
2021/05/14 08:30:51;;;;;;;8.90;6.30;;;21.10;76.10;;;;;;4956069;28;20601;-83
2021/05/14 08:33:20;;;;;;;11.33;6.80;;;21.10;74.50;;;;;;4968547;28;20224;-86
2021/05/14 08:35:48;;;;;;;12.00;9.73;;;21.10;74.20;;;;;;4981330;28;20596;-87
2021/05/14 08:38:16;;;;;;;8.52;6.25;;;21.20;74.70;;;;;;4989982;28;20192;-85
2021/05/14 08:40:46;;;;;;;8.95;5.53;;;21.30;74.10;;;;;;4988294;28;20228;-84
2021/05/14 08:43:16;;;;;;;12.03;5.53;;;21.40;73.10;;;;;;4981725;28;20200;-86
2021/05/14 08:45:44;;;;;;;6.27;4.13;;;21.20;72.10;;;;;;4982394;28;20212;-84
2021/05/14 08:48:15;;;;;;;7.33;5.10;;;21.20;71.70;;;;;;4981028;28;20750;-83
2021/05/14 08:51:08;;;;;;;7.27;4.73;;;21.10;70.70;;;;;;5118749;27;20754;-85
2021/05/14 08:53:40;;;;;;;7.00;4.97;;;21.10;72.70;;;;;;5131943;27;20198;-85
2021/05/14 08:56:09;;;;;;;5.57;5.03;;;21.10;71.50;;;;;;5133844;27;20199;-86
2021/05/14 08:58:38;;;;;;;11.10;5.33;;;20.90;71.60;;;;;;5104884;27;20305;-85
2021/05/14 09:01:07;;;;;;;4.97;4.40;;;20.80;71.00;;;;;;5125702;27;20202;-84
2021/05/14 09:03:56;;;;;;;5.03;4.17;;;21.00;71.50;;;;;;5122410;27;20484;-84
2021/05/14 09:06:30;;;;;;;8.80;4.97;;;21.20;71.10;;;;;;5133600;27;20210;-82
2021/05/14 09:09:00;;;;;;;8.13;4.20;;;21.20;70.30;;;;;;5127781;27;20222;-85
2021/05/14 09:11:33;;;;;;;4.60;3.70;;;21.40;69.20;;;;;;5120055;27;21007;-82
2021/05/14 09:14:02;;;;;;;5.13;4.10;;;21.50;69.70;;;;;;5117949;27;21945;-85
2021/05/14 09:16:41;;;;;;;5.73;4.00;;;21.50;68.60;;;;;;5120224;27;20475;-86
2021/05/14 09:19:10;;;;;;;7.87;5.87;;;21.50;69.00;;;;;;5115754;27;20199;-83
2021/05/14 09:21:43;;;;;;;5.47;4.30;;;21.60;67.60;;;;;;5125257;27;20206;-83
2021/05/14 09:24:11;;;;;;;6.30;4.27;;;21.30;67.40;;;;;;5102175;27;20540;-86
2021/05/14 09:26:40;;;;;;;8.00;4.20;;;21.10;68.10;;;;;;5128040;27;20199;-85
2021/05/14 09:29:38;;;;;;;7.15;4.70;;;21.20;67.40;;;;;;5095989;27;20276;-85
2021/05/14 09:32:20;;;;;;;6.85;4.57;;;21.30;67.70;;;;;;5082462;27;21375;-85
2021/05/14 09:34:52;;;;;;;5.95;3.80;;;21.60;67.40;;;;;;5112379;27;21164;-84
2021/05/14 09:37:23;;;;;;;8.02;3.92;;;21.80;66.80;;;;;;5116209;27;20199;-85
2021/05/14 09:40:14;;;;;;;5.10;4.05;;;22.00;66.20;;;;;;5099836;27;21016;-85
2021/05/14 09:42:44;;;;;;;7.55;4.60;;;22.00;66.10;;;;;;5090592;27;20223;-82
2021/05/14 09:45:17;;;;;;;7.18;4.30;;;22.10;66.90;;;;;;5144892;27;20247;-84
2021/05/14 09:47:58;;;;;;;6.57;4.45;;;22.10;66.50;;;;;;5138653;27;20202;-84
2021/05/14 09:50:32;;;;;;;5.45;4.40;;;22.00;65.30;;;;;;5135088;27;20222;-83
2021/05/14 09:53:10;;;;;;;6.72;4.95;;;21.80;66.10;;;;;;5113327;27;20279;-83
2021/05/14 09:55:40;;;;;;;8.95;4.40;;;21.80;65.50;;;;;;5123217;27;20259;-87
2021/05/14 09:58:15;;;;;;;13.85;4.70;;;21.50;66.10;;;;;;5124540;27;20205;-84
2021/05/14 10:00:43;;;;;;;8.53;4.40;;;21.10;66.50;;;;;;5113588;27;20196;-86
2021/05/14 10:03:14;;;;;;;5.90;4.70;;;21.10;66.90;;;;;;5110488;27;20392;-84
2021/05/14 10:05:45;;;;;;;6.93;5.00;;;21.00;67.40;;;;;;5105982;27;20223;-84
2021/05/14 10:08:19;;;;;;;8.27;5.00;;;20.90;66.90;;;;;;5116845;27;21652;-83
2021/05/14 10:10:48;;;;;;;7.10;4.90;;;20.90;66.80;;;;;;5110228;27;20226;-85
2021/05/14 10:13:19;;;;;;;10.20;5.33;;;21.00;66.80;;;;;;5107773;27;20260;-83
2021/05/14 10:15:48;;;;;;;7.73;5.50;;;21.10;66.90;;;;;;5115984;27;20658;-84
2021/05/14 10:18:18;;;;;;;9.35;4.82;;;21.20;66.60;;;;;;5114292;27;20424;-85
2021/05/14 10:20:48;;;;;;;6.28;5.20;;;21.30;67.30;;;;;;5132823;27;20191;-83
2021/05/14 10:23:19;;;;;;;7.03;4.72;;;21.70;66.00;;;;;;5111065;27;20196;-87
2021/05/14 10:25:49;;;;;;;5.13;4.18;;;22.00;65.90;;;;;;5120551;27;20203;-84
2021/05/14 10:28:24;;;;;;;4.22;3.83;;;22.10;64.20;;;;;;5105017;27;20207;-84
2021/05/14 10:31:23;;;;;;;5.22;4.10;;;22.30;64.40;;;;;;5101186;27;20230;-84
2021/05/14 10:33:54;;;;;;;7.25;3.97;;;22.50;62.20;;;;;;5046922;27;20725;-84
2021/05/14 10:36:43;;;;;;;4.57;3.70;;;22.70;61.60;;;;;;5090446;27;20779;-84
2021/05/14 10:39:18;;;;;;;5.53;4.45;;;22.50;60.00;;;;;;5089381;27;20223;-85
2021/05/14 10:41:59;;;;;;;4.45;4.05;;;22.60;59.60;;;;;;5097249;27;20861;-84
2021/05/14 10:44:50;;;;;;;4.95;3.60;;;22.70;58.30;;;;;;5105532;27;20433;-85
2021/05/14 10:47:47;;;;;;;8.32;4.10;;;22.80;60.20;;;;;;5096671;27;21102;-84
2021/05/14 10:50:41;;;;;;;5.65;4.18;;;22.70;58.70;;;;;;5097373;27;20227;-84
2021/05/14 10:53:34;;;;;;;5.53;4.22;;;22.60;59.70;;;;;;5118313;27;20233;-82
2021/05/14 10:56:50;;;;;;;6.82;4.25;;;22.50;58.80;;;;;;5105129;27;20200;-86
2021/05/14 10:59:36;;;;;;;5.53;4.40;;;22.40;58.70;;;;;;5098416;27;20207;-83
2021/05/14 11:02:28;;;;;;;5.07;4.38;;;22.20;57.30;;;;;;5104228;27;20282;-85
2021/05/14 11:04:57;;;;;;;3.97;3.67;;;22.30;58.00;;;;;;5109191;27;20331;-83
2021/05/14 11:07:36;;;;;;;6.43;4.10;;;22.40;57.00;;;;;;5103356;27;20195;-83
2021/05/14 11:10:27;;;;;;;3.92;3.55;;;22.50;57.40;;;;;;5100728;27;21186;-85
2021/05/14 11:12:55;;;;;;;4.60;3.85;;;22.40;57.50;;;;;;5093507;27;20584;-85
2021/05/14 11:15:35;;;;;;;4.60;4.07;;;22.40;57.80;;;;;;5106554;27;20677;-84
2021/05/14 11:18:25;;;;;;;6.47;4.60;;;22.30;57.00;;;;;;5111994;27;20553;-85
2021/05/14 11:20:56;;;;;;;5.10;4.55;;;22.40;57.30;;;;;;5118350;27;20283;-85
2021/05/14 11:23:39;;;;;;;5.40;4.90;;;22.60;57.00;;;;;;5112433;27;20464;-83
2021/05/14 11:26:18;;;;;;;5.95;4.15;;;22.60;56.80;;;;;;5105753;27;20195;-84
2021/05/14 11:28:48;;;;;;;6.60;4.72;;;22.50;58.00;;;;;;5082634;27;20234;-82
2021/05/14 11:31:19;;;;;;;7.43;4.80;;;22.60;58.30;;;;;;5106089;27;20240;-83
2021/05/14 11:33:49;;;;;;;7.05;4.65;;;22.70;59.30;;;;;;5114053;27;20207;-83
2021/05/14 11:36:21;;;;;;;5.63;5.07;;;22.80;59.40;;;;;;5123403;27;20271;-84
2021/05/14 11:38:51;;;;;;;5.22;4.72;;;22.90;59.60;;;;;;5110189;27;20211;-84
2021/05/14 11:41:26;;;;;;;5.68;4.65;;;23.10;59.10;;;;;;5098009;27;20202;-83
2021/05/14 11:43:56;;;;;;;13.68;5.10;;;23.30;58.20;;;;;;5099599;27;20459;-83
2021/05/14 11:46:26;;;;;;;5.57;4.97;;;23.40;59.40;;;;;;5105130;27;20709;-85
2021/05/14 11:48:55;;;;;;;5.97;5.20;;;23.60;57.50;;;;;;5091321;27;20219;-84
2021/05/14 11:51:23;;;;;;;6.20;4.65;;;23.70;56.50;;;;;;5091826;27;20234;-83
2021/05/14 11:53:52;;;;;;;6.68;5.03;;;23.50;58.00;;;;;;5088294;27;20199;-87
2021/05/14 11:56:20;;;;;;;5.68;4.63;;;23.30;58.50;;;;;;5101217;27;20441;-83
2021/05/14 11:58:48;;;;;;;5.50;5.00;;;23.30;59.90;;;;;;5098948;27;20314;-83
2021/05/14 12:01:16;;;;;;;7.07;4.65;;;23.40;59.00;;;;;;5112955;27;20424;-83
2021/05/14 12:03:45;;;;;;;8.27;4.90;;;23.30;60.40;;;;;;5107065;27;20234;-83
2021/05/14 12:06:13;;;;;;;5.78;4.47;;;23.20;61.00;;;;;;5111033;27;20199;-83
2021/05/14 12:08:41;;;;;;;5.25;4.20;;;22.70;60.80;;;;;;5106696;27;20212;-85
2021/05/14 12:11:15;;;;;;;7.47;5.35;;;22.50;61.70;;;;;;5109582;27;20641;-82
2021/05/14 12:13:45;;;;;;;4.97;4.47;;;22.50;62.20;;;;;;5102971;27;20354;-84
2021/05/14 12:16:14;;;;;;;6.60;6.00;;;22.50;62.10;;;;;;5117856;27;20259;-83
2021/05/14 12:18:47;;;;;;;6.68;4.35;;;22.50;61.60;;;;;;5106152;27;20203;-83
2021/05/14 12:21:22;;;;;;;4.95;4.47;;;22.30;61.40;;;;;;5117604;27;20195;-85
2021/05/14 12:23:51;;;;;;;6.05;4.65;;;22.00;61.10;;;;;;5116836;27;20207;-82
2021/05/14 12:26:19;;;;;;;5.13;4.57;;;22.10;61.90;;;;;;5116240;27;20202;-83
2021/05/14 12:28:48;;;;;;;5.45;5.05;;;22.30;61.70;;;;;;5110076;27;20195;-82
2021/05/14 12:31:24;;;;;;;5.93;4.50;;;22.40;62.20;;;;;;5123148;27;20283;-81
2021/05/14 12:33:55;;;;;;;7.57;4.55;;;22.50;61.60;;;;;;5127202;27;20199;-82
2021/05/14 12:36:25;;;;;;;9.65;4.97;;;22.50;62.00;;;;;;5113987;27;20499;-84
2021/05/14 12:38:55;;;;;;;5.35;4.80;;;22.30;61.20;;;;;;5098563;27;20696;-86
2021/05/14 12:41:28;;;;;;;5.63;4.38;;;22.20;60.90;;;;;;5099210;27;20538;-82
2021/05/14 12:44:17;;;;;;;5.32;4.30;;;22.20;61.70;;;;;;5094020;27;20388;-85
2021/05/14 12:47:05;;;;;;;6.13;4.85;;;22.30;60.80;;;;;;5099545;27;20203;-83
2021/05/14 12:49:42;;;;;;;4.95;4.55;;;22.60;62.00;;;;;;5097389;27;20211;-83
2021/05/14 12:52:13;;;;;;;5.22;4.72;;;23.00;60.50;;;;;;5093556;27;20899;-82
2021/05/14 12:54:55;;;;;;;5.80;4.93;;;22.70;60.50;;;;;;5104340;27;20210;-81
2021/05/14 12:57:26;;;;;;;7.72;4.75;;;22.40;60.70;;;;;;5093414;27;20538;-83
2021/05/14 12:59:56;;;;;;;9.38;4.93;;;22.20;61.20;;;;;;5098242;27;20208;-85